Time;durP1;ratioP1;P1;durP2;ratioP2;P2;SDS_P1;SDS_P2;PMS_P1;PMS_P2;Temp;Humidity;BMP_temperature;BMP_pressure;BME280_temperature;BME280_humidity;BME280_pressure;Samples;Min_cycle;Max_cycle;Signal;HPM_P1;HPM_P2
2021/12/14 00:00:39;;;;;;;35.25;22.27;;;8.00;86.80;;;;;;5087780;28;20494;-84
2021/12/14 00:03:09;;;;;;;38.28;22.80;;;8.00;86.90;;;;;;5071007;28;20052;-83
2021/12/14 00:05:37;;;;;;;33.97;21.30;;;8.00;86.80;;;;;;5070132;28;20598;-83
2021/12/14 00:08:07;;;;;;;38.95;23.42;;;8.00;86.80;;;;;;5075920;28;20060;-83
2021/12/14 00:13:15;;;;;;;38.90;22.92;;;8.00;86.90;;;;;;5071396;28;20052;-83
2021/12/14 00:15:42;;;;;;;41.03;24.90;;;8.10;86.90;;;;;;5086340;28;20048;-83
2021/12/14 00:18:13;;;;;;;38.72;24.17;;;8.00;86.90;;;;;;5075721;28;20502;-83
2021/12/14 00:20:54;;;;;;;41.67;24.67;;;8.00;86.90;;;;;;5075423;28;20076;-83
2021/12/14 00:26:13;;;;;;;45.75;25.02;;;8.10;86.90;;;;;;5074891;28;20494;-83
2021/12/14 00:28:40;;;;;;;43.75;26.20;;;8.00;86.90;;;;;;5075377;28;20059;-83
2021/12/14 00:31:13;;;;;;;42.45;24.55;;;8.10;86.90;;;;;;5071230;28;20050;-83
2021/12/14 00:33:42;;;;;;;43.22;25.40;;;8.00;86.90;;;;;;5073144;28;20132;-83
2021/12/14 00:36:11;;;;;;;45.53;27.02;;;8.00;86.90;;;;;;5086064;28;20498;-83
2021/12/14 00:38:41;;;;;;;46.72;26.95;;;8.00;86.90;;;;;;5077950;28;20044;-83
2021/12/14 00:41:19;;;;;;;43.95;25.75;;;8.00;86.90;;;;;;5076888;28;20051;-83
2021/12/14 00:43:46;;;;;;;50.03;28.00;;;8.00;86.90;;;;;;5084624;28;20059;-83
2021/12/14 00:46:15;;;;;;;51.70;26.98;;;8.00;86.90;;;;;;5089255;28;20046;-83
2021/12/14 00:48:42;;;;;;;46.30;27.00;;;8.00;86.90;;;;;;5090434;28;20048;-83
2021/12/14 00:51:11;;;;;;;50.10;28.33;;;8.00;86.90;;;;;;5090497;28;20044;-83
2021/12/14 00:53:40;;;;;;;47.72;27.85;;;8.00;86.90;;;;;;5088995;28;20058;-83
2021/12/14 00:56:10;;;;;;;48.55;27.23;;;8.00;86.90;;;;;;5087670;28;20050;-83
2021/12/14 00:58:38;;;;;;;52.50;30.23;;;8.00;86.90;;;;;;5089159;28;20047;-83
2021/12/14 01:01:11;;;;;;;53.15;27.73;;;8.00;86.90;;;;;;5089335;28;20653;-83
2021/12/14 01:03:41;;;;;;;54.08;29.60;;;8.10;86.90;;;;;;5087007;28;20522;-83
2021/12/14 01:06:11;;;;;;;56.55;30.83;;;8.10;87.00;;;;;;5090306;28;20051;-83
2021/12/14 01:08:40;;;;;;;60.75;32.42;;;8.00;86.90;;;;;;5088597;28;20065;-83
2021/12/14 01:11:17;;;;;;;52.90;28.20;;;8.00;87.00;;;;;;5087818;28;20044;-83
2021/12/14 01:13:55;;;;;;;59.15;31.98;;;8.00;87.00;;;;;;5088933;28;20052;-83
2021/12/14 01:16:32;;;;;;;59.55;31.27;;;8.00;87.00;;;;;;5087798;28;20036;-83
2021/12/14 01:19:19;;;;;;;60.60;31.95;;;8.00;87.00;;;;;;5088998;28;20044;-84
2021/12/14 01:22:15;;;;;;;61.47;32.78;;;8.00;87.00;;;;;;5087373;28;20519;-83
2021/12/14 01:27:19;;;;;;;65.82;34.55;;;8.10;87.00;;;;;;5088849;28;20044;-83
2021/12/14 01:29:49;;;;;;;68.05;35.20;;;8.00;87.00;;;;;;5089601;28;20497;-83
2021/12/14 01:32:17;;;;;;;65.25;33.33;;;8.10;87.00;;;;;;5092403;28;20044;-83
2021/12/14 01:34:44;;;;;;;68.82;36.53;;;8.00;87.00;;;;;;5091072;28;20054;-83
2021/12/14 01:37:18;;;;;;;63.60;35.83;;;8.00;87.00;;;;;;5092076;28;20493;-83
2021/12/14 01:42:34;;;;;;;68.85;37.35;;;8.00;87.00;;;;;;5093252;28;20055;-83
2021/12/14 01:45:05;;;;;;;73.68;38.20;;;8.00;87.00;;;;;;5092571;28;20127;-83
2021/12/14 01:47:41;;;;;;;77.40;37.72;;;8.00;87.00;;;;;;5092086;28;20048;-83
2021/12/14 01:52:54;;;;;;;79.22;38.17;;;8.00;87.00;;;;;;4831624;23;20079;-81
2021/12/14 01:55:27;;;;;;;74.40;37.55;;;8.00;87.00;;;;;;4936417;29;20055;-80
2021/12/14 01:57:56;;;;;;;74.22;38.42;;;8.00;87.00;;;;;;4938048;29;20525;-80
2021/12/14 02:00:33;;;;;;;71.22;36.78;;;8.00;87.00;;;;;;4938180;29;20048;-80
2021/12/14 02:03:06;;;;;;;74.85;38.40;;;8.00;87.00;;;;;;4923227;29;20557;-80
2021/12/14 02:05:38;;;;;;;84.10;40.03;;;8.00;87.00;;;;;;4937196;29;20052;-80
2021/12/14 02:08:16;;;;;;;69.82;36.72;;;8.00;87.00;;;;;;4938360;29;20043;-80
2021/12/14 02:10:44;;;;;;;83.03;40.05;;;8.00;87.00;;;;;;4937985;29;20056;-80
2021/12/14 02:13:11;;;;;;;79.95;38.15;;;8.00;87.00;;;;;;4937428;29;20429;-80
2021/12/14 02:15:43;;;;;;;77.68;37.97;;;8.00;87.00;;;;;;4937928;29;20417;-80
2021/12/14 02:18:15;;;;;;;75.10;39.55;;;8.00;87.00;;;;;;4937925;29;20048;-80
2021/12/14 02:20:52;;;;;;;80.15;39.67;;;8.00;87.00;;;;;;4937667;29;20056;-80
2021/12/14 02:23:20;;;;;;;73.80;35.88;;;8.00;87.00;;;;;;4935897;29;20138;-81
2021/12/14 02:25:50;;;;;;;81.07;39.58;;;8.00;87.00;;;;;;4937569;29;20047;-80
2021/12/14 02:28:20;;;;;;;79.32;38.35;;;8.00;87.00;;;;;;4937565;29;20040;-80
2021/12/14 02:30:49;;;;;;;76.15;39.63;;;8.00;87.00;;;;;;4937551;29;20060;-80
2021/12/14 02:33:24;;;;;;;81.47;39.20;;;8.00;87.00;;;;;;4937395;29;20043;-80
2021/12/14 02:35:52;;;;;;;81.50;40.05;;;8.00;87.00;;;;;;4937222;29;20047;-80
2021/12/14 02:38:20;;;;;;;77.35;37.75;;;8.00;87.00;;;;;;4936660;29;20494;-80
2021/12/14 02:41:01;;;;;;;76.13;37.88;;;8.00;87.00;;;;;;4936854;29;20520;-80
2021/12/14 02:43:36;;;;;;;75.05;37.65;;;8.00;87.00;;;;;;4937202;29;20132;-80
2021/12/14 02:46:05;;;;;;;75.82;37.78;;;8.00;87.00;;;;;;4937214;29;20445;-80
2021/12/14 02:48:33;;;;;;;73.85;37.10;;;8.00;87.00;;;;;;4937160;29;20128;-80
2021/12/14 02:51:31;;;;;;;82.13;39.28;;;8.00;87.00;;;;;;4937113;29;20513;-80
2021/12/14 02:54:03;;;;;;;77.38;38.67;;;8.00;87.00;;;;;;4921755;29;20509;-80
2021/12/14 02:56:33;;;;;;;79.00;38.80;;;8.00;86.90;;;;;;4932585;29;20051;-80
2021/12/14 02:59:06;;;;;;;75.20;39.15;;;7.90;87.00;;;;;;4937042;29;20050;-80
2021/12/14 03:01:35;;;;;;;80.40;38.47;;;8.00;87.00;;;;;;4937001;29;20058;-80
2021/12/14 03:04:05;;;;;;;78.15;38.03;;;8.00;86.90;;;;;;4936893;29;20485;-80
2021/12/14 03:06:36;;;;;;;83.95;40.33;;;8.00;87.00;;;;;;4936486;29;20051;-80
2021/12/14 03:09:17;;;;;;;82.95;38.55;;;8.00;87.00;;;;;;4936751;29;20054;-80
2021/12/14 03:11:44;;;;;;;81.72;37.97;;;7.90;87.00;;;;;;4936833;29;20051;-80
2021/12/14 03:14:11;;;;;;;83.13;38.83;;;8.00;87.00;;;;;;4934076;29;20052;-80
2021/12/14 03:16:39;;;;;;;80.05;38.78;;;8.00;87.00;;;;;;4936580;29;20048;-80
2021/12/14 03:19:08;;;;;;;78.65;38.03;;;8.00;87.00;;;;;;4936482;29;20054;-80
2021/12/14 03:21:45;;;;;;;80.35;40.70;;;7.90;87.00;;;;;;4936195;29;20425;-80
2021/12/14 03:24:15;;;;;;;83.97;38.45;;;7.90;87.00;;;;;;4936603;29;20054;-80
2021/12/14 03:26:51;;;;;;;73.57;37.17;;;7.90;87.00;;;;;;4936416;29;20051;-80
2021/12/14 03:29:30;;;;;;;78.63;38.33;;;7.90;87.00;;;;;;4934724;29;20056;-80
2021/12/14 03:31:58;;;;;;;78.50;40.20;;;7.90;87.00;;;;;;4935979;29;20429;-80
2021/12/14 03:34:38;;;;;;;73.88;36.95;;;7.90;87.00;;;;;;4935926;29;20082;-80
2021/12/14 03:37:12;;;;;;;79.90;38.72;;;7.90;87.00;;;;;;4936299;29;20065;-80
2021/12/14 03:39:49;;;;;;;79.53;36.83;;;7.90;87.00;;;;;;4936257;29;20098;-80
2021/12/14 03:42:25;;;;;;;79.85;37.97;;;7.90;87.00;;;;;;4936274;29;20510;-80
2021/12/14 03:44:56;;;;;;;79.32;39.13;;;7.90;87.00;;;;;;4936319;29;20057;-80
2021/12/14 03:47:29;;;;;;;78.32;38.03;;;7.90;87.00;;;;;;4935557;29;20062;-80
2021/12/14 03:50:10;;;;;;;76.07;37.97;;;7.90;87.00;;;;;;4937127;29;20501;-80
2021/12/14 03:52:41;;;;;;;76.20;38.05;;;7.90;87.00;;;;;;4935062;29;20047;-80
2021/12/14 03:55:21;;;;;;;76.45;37.53;;;7.90;87.00;;;;;;4936029;29;20587;-80
2021/12/14 03:57:48;;;;;;;77.45;37.38;;;7.90;87.00;;;;;;4936019;29;20547;-80
2021/12/14 04:00:20;;;;;;;76.18;37.05;;;7.90;87.00;;;;;;4936179;29;20054;-80
2021/12/14 04:02:50;;;;;;;78.03;37.80;;;7.90;87.00;;;;;;4936065;29;20668;-80
2021/12/14 04:05:18;;;;;;;74.88;37.85;;;7.90;87.00;;;;;;4935320;29;20138;-80
2021/12/14 04:07:45;;;;;;;79.28;38.92;;;7.90;87.00;;;;;;4935902;29;20514;-80
2021/12/14 04:10:17;;;;;;;78.40;37.15;;;7.90;87.00;;;;;;4935854;29;20058;-80
2021/12/14 04:12:49;;;;;;;77.60;37.47;;;7.90;87.00;;;;;;4935708;29;20047;-80
2021/12/14 04:15:16;;;;;;;70.28;36.50;;;7.90;87.00;;;;;;4935925;29;20054;-80
2021/12/14 04:17:43;;;;;;;70.10;35.20;;;7.90;87.00;;;;;;4935602;29;20051;-80
2021/12/14 04:20:15;;;;;;;81.40;37.95;;;7.90;87.00;;;;;;4931892;29;20062;-80
2021/12/14 04:22:48;;;;;;;72.32;35.70;;;7.90;87.00;;;;;;4935744;29;20047;-80
2021/12/14 04:25:19;;;;;;;74.25;37.13;;;7.90;87.00;;;;;;4935672;29;20533;-80
2021/12/14 04:27:48;;;;;;;67.07;36.13;;;7.90;87.00;;;;;;4935744;29;20052;-80
2021/12/14 04:30:18;;;;;;;70.80;34.78;;;7.90;87.00;;;;;;4935735;29;20052;-80
2021/12/14 04:32:47;;;;;;;72.50;37.88;;;7.90;87.00;;;;;;4935420;29;20048;-80
2021/12/14 04:35:15;;;;;;;71.43;35.38;;;7.90;87.00;;;;;;4934947;29;20509;-80
2021/12/14 04:37:44;;;;;;;74.38;35.75;;;7.90;87.00;;;;;;4935495;29;20518;-80
2021/12/14 04:40:23;;;;;;;70.68;35.28;;;7.90;87.00;;;;;;4930250;29;20051;-80
2021/12/14 04:54:02;;;;;;;66.28;34.05;;;7.90;87.00;;;;;;4935284;29;20058;-80
2021/12/14 04:56:34;;;;;;;66.10;34.50;;;7.90;87.00;;;;;;4931163;29;20502;-81
2021/12/14 04:59:17;;;;;;;65.60;33.20;;;7.90;87.00;;;;;;4935470;29;20062;-80
2021/12/14 05:01:46;;;;;;;68.95;33.33;;;7.90;87.00;;;;;;4935019;29;20061;-80
2021/12/14 05:04:18;;;;;;;62.47;32.45;;;7.90;87.00;;;;;;4936906;29;20553;-80
2021/12/14 05:06:53;;;;;;;65.18;31.58;;;7.90;87.00;;;;;;4939058;29;20052;-80
2021/12/14 05:09:29;;;;;;;59.60;32.83;;;7.90;87.10;;;;;;4938905;29;20081;-80
2021/12/14 05:12:01;;;;;;;55.25;31.92;;;7.80;87.00;;;;;;4937841;29;20470;-80
2021/12/14 05:14:29;;;;;;;61.13;32.10;;;7.90;87.00;;;;;;4934299;29;20052;-80
2021/12/14 05:17:00;;;;;;;54.78;30.63;;;7.80;87.00;;;;;;4939990;29;20043;-80
2021/12/14 05:19:31;;;;;;;53.97;31.02;;;7.80;87.00;;;;;;4938823;29;20573;-80
2021/12/14 05:22:06;;;;;;;56.33;30.52;;;7.80;87.00;;;;;;4938666;29;20043;-80
2021/12/14 05:24:36;;;;;;;57.00;31.17;;;7.90;87.00;;;;;;4938763;29;20051;-80
2021/12/14 05:27:06;;;;;;;51.88;28.73;;;7.80;87.00;;;;;;4938824;29;20043;-80
2021/12/14 05:29:34;;;;;;;53.25;29.77;;;7.80;87.00;;;;;;4937833;29;20062;-80
2021/12/14 05:32:04;;;;;;;55.97;30.52;;;7.80;87.00;;;;;;4938380;29;20058;-80
2021/12/14 05:34:36;;;;;;;53.05;28.33;;;7.80;87.00;;;;;;4938490;29;20147;-80
2021/12/14 05:37:05;;;;;;;53.92;28.65;;;7.90;87.00;;;;;;4938683;29;20044;-80
2021/12/14 05:44:40;;;;;;;47.72;28.67;;;7.80;87.00;;;;;;4934312;29;20055;-80
2021/12/14 05:47:11;;;;;;;48.88;27.75;;;7.90;87.00;;;;;;4939287;29;20052;-80
2021/12/14 05:49:41;;;;;;;51.25;29.35;;;7.80;87.00;;;;;;4938218;29;20142;-80
2021/12/14 05:52:22;;;;;;;45.33;26.48;;;7.80;87.00;;;;;;4938319;29;20171;-80
2021/12/14 05:54:50;;;;;;;48.60;28.67;;;7.90;87.00;;;;;;4936965;29;20058;-80
2021/12/14 05:57:21;;;;;;;46.90;27.35;;;7.80;87.00;;;;;;4938268;29;20043;-80
2021/12/14 05:59:49;;;;;;;52.47;29.15;;;7.80;87.00;;;;;;4937954;29;20422;-80
2021/12/14 06:02:19;;;;;;;47.60;27.60;;;7.80;87.00;;;;;;4937365;29;20054;-80
2021/12/14 06:04:50;;;;;;;50.17;27.58;;;7.80;87.00;;;;;;4938080;29;20508;-80
2021/12/14 06:07:18;;;;;;;48.67;27.52;;;7.80;87.00;;;;;;4937916;29;20434;-80
2021/12/14 06:09:49;;;;;;;48.20;28.02;;;7.80;87.00;;;;;;4937765;29;20054;-80
2021/12/14 06:12:30;;;;;;;48.65;27.50;;;7.80;87.00;;;;;;4936836;29;20061;-80
2021/12/14 06:15:00;;;;;;;45.72;26.27;;;7.80;87.00;;;;;;4937182;29;20059;-80
2021/12/14 06:17:36;;;;;;;50.78;27.95;;;7.80;87.00;;;;;;4932982;29;20052;-80
2021/12/14 06:20:10;;;;;;;49.22;27.05;;;7.80;87.00;;;;;;4938193;29;20062;-80
2021/12/14 06:22:38;;;;;;;46.22;25.98;;;7.80;87.00;;;;;;4937677;29;20059;-81
2021/12/14 06:25:17;;;;;;;47.42;27.55;;;7.80;87.00;;;;;;4937642;29;20044;-80
2021/12/14 06:27:47;;;;;;;50.65;28.13;;;7.80;87.00;;;;;;4937504;29;20065;-80
2021/12/14 06:30:21;;;;;;;49.17;26.52;;;7.80;87.00;;;;;;4937491;29;20048;-81
2021/12/14 06:32:59;;;;;;;48.22;27.38;;;7.80;87.00;;;;;;4937582;29;20422;-80
2021/12/14 06:35:37;;;;;;;43.67;25.90;;;7.80;87.10;;;;;;4932740;29;20494;-80
2021/12/14 06:38:27;;;;;;;48.53;27.20;;;7.90;87.10;;;;;;4937865;29;20044;-80
2021/12/14 06:41:01;;;;;;;48.58;27.35;;;7.80;87.00;;;;;;4937568;29;20107;-80
2021/12/14 06:43:37;;;;;;;50.53;27.20;;;7.80;87.10;;;;;;4937050;29;20050;-80
2021/12/14 06:46:11;;;;;;;46.08;26.35;;;7.80;87.10;;;;;;4937276;29;20052;-80
2021/12/14 06:48:45;;;;;;;47.22;26.98;;;7.90;87.10;;;;;;4931885;29;20044;-80
2021/12/14 06:51:12;;;;;;;47.45;26.42;;;7.90;87.10;;;;;;4936087;29;20052;-80
2021/12/14 06:53:41;;;;;;;47.60;26.15;;;7.80;87.10;;;;;;4936307;29;20051;-80
2021/12/14 06:56:11;;;;;;;45.83;26.77;;;7.90;87.10;;;;;;4936533;28;20060;-80
2021/12/14 06:58:52;;;;;;;46.45;25.38;;;7.90;87.10;;;;;;4936631;29;20051;-80
2021/12/14 07:01:26;;;;;;;47.15;26.45;;;7.80;87.10;;;;;;4936935;29;20536;-80
2021/12/14 07:04:04;;;;;;;46.13;25.33;;;7.90;87.10;;;;;;4936844;29;20066;-81
2021/12/14 07:06:35;;;;;;;43.92;25.23;;;7.80;87.00;;;;;;4936993;29;20052;-80
2021/12/14 07:09:10;;;;;;;46.92;26.27;;;7.80;87.00;;;;;;4922287;29;20047;-80
2021/12/14 07:11:42;;;;;;;47.60;26.15;;;7.80;87.00;;;;;;4935552;29;20518;-80
2021/12/14 07:14:25;;;;;;;41.78;24.92;;;7.90;87.00;;;;;;4933958;29;20048;-80
2021/12/14 07:16:54;;;;;;;43.67;26.08;;;7.90;87.00;;;;;;4936833;29;20055;-80
2021/12/14 07:19:40;;;;;;;41.33;25.30;;;7.80;87.00;;;;;;4936649;29;20054;-81
2021/12/14 07:22:33;;;;;;;40.70;24.65;;;7.80;87.00;;;;;;4936408;29;20433;-80
2021/12/14 07:25:01;;;;;;;41.67;23.95;;;7.80;87.00;;;;;;4936039;29;20044;-80
2021/12/14 07:27:31;;;;;;;42.03;24.20;;;7.80;87.00;;;;;;4936381;29;20047;-80
2021/12/14 07:30:21;;;;;;;40.83;24.10;;;7.80;87.00;;;;;;4936484;29;20051;-80
2021/12/14 07:32:51;;;;;;;40.03;23.73;;;7.80;87.00;;;;;;4937014;29;20126;-80
2021/12/14 07:35:27;;;;;;;38.20;23.75;;;7.80;87.00;;;;;;4935628;29;20052;-81
2021/12/14 07:38:16;;;;;;;44.35;24.13;;;7.80;87.00;;;;;;4936363;29;20059;-80
2021/12/14 07:40:46;;;;;;;42.55;25.10;;;7.80;87.00;;;;;;4933144;29;20048;-80
2021/12/14 07:43:43;;;;;;;39.80;24.50;;;7.80;87.00;;;;;;4930039;29;20050;-80
2021/12/14 07:46:36;;;;;;;42.95;23.55;;;7.80;87.00;;;;;;4935381;29;20048;-80
2021/12/14 07:49:18;;;;;;;40.65;24.52;;;7.80;87.00;;;;;;4935959;29;20051;-80
2021/12/14 07:51:48;;;;;;;38.88;24.13;;;7.90;87.00;;;;;;4932283;29;20060;-80
2021/12/14 07:54:23;;;;;;;41.72;23.13;;;7.80;87.00;;;;;;4935324;29;20047;-80
2021/12/14 07:57:00;;;;;;;42.65;24.35;;;7.80;87.00;;;;;;4939134;29;20048;-80
2021/12/14 07:59:30;;;;;;;37.88;23.00;;;7.80;87.00;;;;;;4931066;29;20044;-80
2021/12/14 08:02:18;;;;;;;41.95;22.65;;;7.80;87.00;;;;;;4937026;29;20139;-80
2021/12/14 08:04:53;;;;;;;40.33;23.90;;;7.80;87.00;;;;;;4935676;29;20051;-80
2021/12/14 08:07:23;;;;;;;40.55;24.08;;;7.80;87.00;;;;;;4930232;29;20505;-81
2021/12/14 08:09:58;;;;;;;39.10;23.67;;;7.80;87.00;;;;;;4937575;29;20051;-80
2021/12/14 08:12:29;;;;;;;40.00;22.92;;;7.80;87.00;;;;;;4935620;29;20425;-80
2021/12/14 08:15:15;;;;;;;38.95;23.23;;;7.90;87.00;;;;;;4935661;29;20098;-80
2021/12/14 08:17:44;;;;;;;40.90;22.98;;;7.80;87.00;;;;;;4932748;29;20052;-81
2021/12/14 08:20:19;;;;;;;37.25;22.90;;;7.80;87.00;;;;;;4932457;29;20056;-80
2021/12/14 08:22:57;;;;;;;37.33;23.03;;;7.80;87.00;;;;;;4935500;29;20135;-80
2021/12/14 08:25:30;;;;;;;37.42;22.77;;;7.80;87.00;;;;;;4934801;29;20098;-80
2021/12/14 08:28:05;;;;;;;35.10;21.73;;;7.80;87.00;;;;;;4935346;29;20040;-80
2021/12/14 08:30:35;;;;;;;38.53;21.85;;;7.80;87.10;;;;;;4935330;29;20434;-80
2021/12/14 08:33:04;;;;;;;39.30;22.95;;;7.90;87.00;;;;;;4920517;29;20044;-79
2021/12/14 08:35:32;;;;;;;40.15;23.67;;;7.90;87.10;;;;;;4934570;29;20057;-79
2021/12/14 08:38:03;;;;;;;36.45;22.33;;;7.90;87.00;;;;;;4934935;29;20052;-82
2021/12/14 08:40:38;;;;;;;35.03;20.67;;;7.90;87.00;;;;;;4938232;29;20051;-80
2021/12/14 08:43:21;;;;;;;35.83;22.42;;;7.90;87.10;;;;;;4939146;29;20043;-80
2021/12/14 08:46:00;;;;;;;35.17;21.33;;;7.90;87.10;;;;;;4941147;29;20047;-80
2021/12/14 08:48:34;;;;;;;36.33;21.95;;;7.90;87.10;;;;;;4938545;29;20048;-80
2021/12/14 08:51:25;;;;;;;39.60;21.92;;;7.90;87.10;;;;;;4924328;29;20143;-80
2021/12/14 08:54:21;;;;;;;37.97;22.63;;;7.90;87.10;;;;;;4938433;29;20043;-80
2021/12/14 08:57:08;;;;;;;37.47;22.15;;;7.90;87.10;;;;;;4938027;29;20094;-80
2021/12/14 08:59:39;;;;;;;38.35;21.55;;;7.90;87.10;;;;;;4935334;29;20062;-80
2021/12/14 09:02:08;;;;;;;35.63;21.70;;;7.90;87.10;;;;;;4938991;29;20051;-80
2021/12/14 09:04:45;;;;;;;36.35;21.95;;;7.90;87.10;;;;;;4938642;29;20054;-80
2021/12/14 09:07:17;;;;;;;39.45;22.17;;;7.90;87.10;;;;;;4938874;29;20044;-80
2021/12/14 09:09:47;;;;;;;39.60;22.58;;;7.90;87.10;;;;;;4938261;29;20171;-80
2021/12/14 09:12:27;;;;;;;36.30;22.08;;;7.90;87.10;;;;;;4938842;29;20061;-80
2021/12/14 09:15:00;;;;;;;35.55;21.83;;;8.00;87.10;;;;;;4938493;29;20050;-80
2021/12/14 09:17:27;;;;;;;36.00;21.00;;;8.00;87.10;;;;;;4933404;29;20055;-80
2021/12/14 09:20:01;;;;;;;35.00;21.73;;;8.00;87.10;;;;;;4938421;29;20058;-80
2021/12/14 09:22:32;;;;;;;35.63;21.23;;;8.00;87.10;;;;;;4938096;29;20043;-80
2021/12/14 09:25:02;;;;;;;34.78;21.55;;;8.00;87.10;;;;;;4938246;29;20047;-80
2021/12/14 09:27:31;;;;;;;37.03;21.63;;;8.00;87.10;;;;;;4938614;29;20682;-80
2021/12/14 09:29:59;;;;;;;30.95;20.90;;;8.00;87.10;;;;;;4938259;29;20043;-80
2021/12/14 09:32:28;;;;;;;34.20;20.42;;;8.10;87.10;;;;;;4933115;29;20055;-80
2021/12/14 09:34:57;;;;;;;34.53;21.35;;;8.10;87.10;;;;;;4938459;29;20065;-80
2021/12/14 09:37:26;;;;;;;34.40;21.45;;;8.10;87.10;;;;;;4937890;29;20047;-80
2021/12/14 09:39:58;;;;;;;32.53;20.80;;;8.10;87.10;;;;;;4937610;29;20132;-80
2021/12/14 09:42:29;;;;;;;37.03;20.98;;;8.10;87.20;;;;;;4937841;29;20054;-80
2021/12/14 09:45:00;;;;;;;36.70;21.23;;;8.20;87.20;;;;;;4939525;29;20040;-80
2021/12/14 09:47:31;;;;;;;36.88;21.55;;;8.20;87.20;;;;;;4933155;29;20064;-80
2021/12/14 09:50:09;;;;;;;34.47;21.00;;;8.30;87.20;;;;;;4938578;29;20452;-80
2021/12/14 09:52:39;;;;;;;35.70;21.20;;;8.30;87.20;;;;;;4937217;29;20055;-80
2021/12/14 09:55:12;;;;;;;32.33;21.02;;;8.30;87.20;;;;;;4937653;29;20506;-80
2021/12/14 09:57:44;;;;;;;38.40;21.77;;;8.30;87.20;;;;;;4938088;29;20047;-80
2021/12/14 10:00:37;;;;;;;32.63;21.45;;;8.40;87.20;;;;;;4937946;29;20054;-80
2021/12/14 10:03:05;;;;;;;33.60;20.85;;;8.40;87.20;;;;;;4923195;29;20046;-80
2021/12/14 10:05:40;;;;;;;31.77;20.60;;;8.40;87.20;;;;;;4936531;29;20052;-80
2021/12/14 10:08:17;;;;;;;32.25;19.98;;;8.40;87.20;;;;;;4938223;29;20051;-80
2021/12/14 10:11:05;;;;;;;35.75;20.83;;;8.50;87.20;;;;;;4937531;29;20048;-80
2021/12/14 10:13:40;;;;;;;37.15;20.90;;;8.50;87.20;;;;;;4935708;29;20050;-80
2021/12/14 10:16:11;;;;;;;28.40;19.70;;;8.50;87.10;;;;;;4933683;29;20067;-79
2021/12/14 10:18:43;;;;;;;32.67;19.88;;;8.50;87.20;;;;;;4931926;29;20131;-80
2021/12/14 10:21:23;;;;;;;31.52;20.45;;;8.50;87.10;;;;;;4918320;29;20475;-79
2021/12/14 10:23:51;;;;;;;32.85;20.25;;;8.60;87.10;;;;;;4918375;29;20065;-80
2021/12/14 10:26:21;;;;;;;28.20;17.80;;;8.60;87.10;;;;;;4921808;29;20055;-80
2021/12/14 10:28:53;;;;;;;32.25;18.70;;;8.70;87.10;;;;;;4921525;29;20062;-80
2021/12/14 10:31:29;;;;;;;28.15;18.92;;;8.70;87.10;;;;;;4921259;29;20062;-79
2021/12/14 10:34:00;;;;;;;27.40;17.75;;;8.70;87.10;;;;;;4921134;29;20067;-79
2021/12/14 10:36:37;;;;;;;28.42;18.52;;;8.70;87.10;;;;;;4920293;29;20044;-80
2021/12/14 10:44:23;;;;;;;28.75;18.42;;;8.80;87.10;;;;;;4921299;29;20062;-80
2021/12/14 10:46:53;;;;;;;27.27;18.40;;;8.80;87.00;;;;;;4929400;29;20528;-80
2021/12/14 10:49:23;;;;;;;27.45;18.25;;;8.80;87.00;;;;;;4925456;29;20052;-79
2021/12/14 10:51:56;;;;;;;24.15;16.98;;;8.90;87.00;;;;;;4920934;29;20047;-80
2021/12/14 10:54:24;;;;;;;27.10;18.65;;;8.90;87.00;;;;;;4919582;29;20527;-81
2021/12/14 10:56:56;;;;;;;27.27;17.58;;;8.90;87.00;;;;;;4916663;29;20534;-79
2021/12/14 10:59:28;;;;;;;25.23;18.33;;;8.90;86.90;;;;;;4920949;29;20052;-79
2021/12/14 11:01:56;;;;;;;28.05;17.88;;;8.90;86.90;;;;;;4928013;29;20051;-80
2021/12/14 11:04:34;;;;;;;27.05;18.05;;;8.90;86.90;;;;;;4924741;29;20392;-79
2021/12/14 11:07:06;;;;;;;29.02;18.42;;;9.00;86.90;;;;;;4921077;29;20149;-80
2021/12/14 11:12:07;;;;;;;26.38;17.25;;;9.00;86.80;;;;;;4917246;29;20053;-80
2021/12/14 11:14:37;;;;;;;25.67;16.92;;;9.00;86.80;;;;;;4919184;29;20054;-79
2021/12/14 11:20:04;;;;;;;25.50;17.35;;;9.10;86.80;;;;;;4915532;29;20051;-80
2021/12/14 11:22:42;;;;;;;23.55;16.65;;;9.10;86.80;;;;;;4920290;29;20055;-80
2021/12/14 11:25:28;;;;;;;25.45;16.92;;;9.10;86.70;;;;;;4920777;29;20424;-80
2021/12/14 11:28:00;;;;;;;24.98;17.33;;;9.20;86.70;;;;;;4920282;29;20044;-80
2021/12/14 11:30:41;;;;;;;21.83;15.35;;;9.20;86.70;;;;;;4916858;29;20528;-79
2021/12/14 11:33:18;;;;;;;24.33;16.35;;;9.20;86.70;;;;;;4917156;29;20067;-80
2021/12/14 11:36:15;;;;;;;21.48;16.08;;;9.20;86.70;;;;;;4917959;29;20426;-79
2021/12/14 11:39:08;;;;;;;24.42;16.45;;;9.30;86.60;;;;;;4915617;29;20052;-81
2021/12/14 11:41:41;;;;;;;23.00;16.63;;;9.30;86.60;;;;;;4914902;29;20051;-81
2021/12/14 11:44:14;;;;;;;22.15;16.27;;;9.30;86.60;;;;;;4930463;29;20062;-80
2021/12/14 11:46:52;;;;;;;23.30;16.65;;;9.30;86.50;;;;;;4929398;29;20051;-80
2021/12/14 11:49:21;;;;;;;21.80;14.77;;;9.30;86.50;;;;;;4925023;29;20108;-80
2021/12/14 11:51:50;;;;;;;26.02;16.77;;;9.40;86.50;;;;;;4918592;29;20051;-80
2021/12/14 11:54:20;;;;;;;22.35;15.25;;;9.40;86.50;;;;;;4927590;29;20135;-80
2021/12/14 11:56:49;;;;;;;22.88;16.42;;;9.40;86.40;;;;;;4931494;29;20435;-80
2021/12/14 11:59:18;;;;;;;21.27;15.05;;;9.40;86.40;;;;;;4919751;29;20056;-80
2021/12/14 12:01:47;;;;;;;21.35;14.57;;;9.40;86.40;;;;;;4919872;29;20059;-79
2021/12/14 12:04:21;;;;;;;22.52;16.20;;;9.40;86.30;;;;;;4920450;29;20052;-79
2021/12/14 12:12:06;;;;;;;22.40;15.05;;;9.50;86.20;;;;;;4915961;29;20407;-79
2021/12/14 12:14:58;;;;;;;21.85;14.45;;;9.50;86.20;;;;;;4929829;29;20429;-79
2021/12/14 12:17:46;;;;;;;22.95;15.60;;;9.50;86.10;;;;;;4919552;29;20062;-80
2021/12/14 12:20:13;;;;;;;20.42;14.27;;;9.60;86.10;;;;;;4919592;29;20103;-80
2021/12/14 12:23:11;;;;;;;20.95;14.43;;;9.60;86.10;;;;;;4919485;29;20052;-79
2021/12/14 12:26:00;;;;;;;20.45;14.63;;;9.60;86.00;;;;;;4928199;29;20170;-80
2021/12/14 12:28:29;;;;;;;20.55;13.68;;;9.60;86.00;;;;;;4923590;29;20060;-79
2021/12/14 12:31:12;;;;;;;20.58;14.30;;;9.60;85.90;;;;;;4919354;29;20073;-81
2021/12/14 12:33:49;;;;;;;19.52;13.35;;;9.70;85.90;;;;;;4919712;29;20065;-80
2021/12/14 12:36:39;;;;;;;18.45;13.50;;;9.70;85.80;;;;;;4917001;29;20059;-80
2021/12/14 12:39:17;;;;;;;19.30;14.05;;;9.60;85.80;;;;;;4920488;29;20066;-81
2021/12/14 12:41:59;;;;;;;18.67;12.77;;;9.70;85.70;;;;;;4930422;29;20054;-81
2021/12/14 12:44:28;;;;;;;19.90;13.15;;;9.70;85.70;;;;;;4918150;29;20131;-80
2021/12/14 12:47:17;;;;;;;17.20;13.23;;;9.70;85.60;;;;;;4928544;29;20411;-80
2021/12/14 12:49:48;;;;;;;18.38;13.02;;;9.70;85.60;;;;;;4927452;29;20529;-82
2021/12/14 12:52:27;;;;;;;19.67;13.07;;;9.70;85.50;;;;;;4927286;29;20048;-80
2021/12/14 12:55:00;;;;;;;19.90;12.88;;;9.70;85.50;;;;;;4927410;29;20059;-81
2021/12/14 12:57:56;;;;;;;21.52;13.48;;;9.70;85.50;;;;;;4928434;29;20515;-80
2021/12/14 13:00:25;;;;;;;18.20;13.20;;;9.70;85.40;;;;;;4917547;29;20048;-80
2021/12/14 13:03:14;;;;;;;18.52;12.77;;;9.70;85.40;;;;;;4916167;29;20154;-80
2021/12/14 13:06:09;;;;;;;16.98;12.32;;;9.70;85.40;;;;;;4931935;29;20107;-79
2021/12/14 13:08:39;;;;;;;16.98;13.18;;;9.70;85.30;;;;;;4914621;29;20552;-80
2021/12/14 13:11:27;;;;;;;17.98;11.68;;;9.70;85.30;;;;;;4929112;29;20498;-80
2021/12/14 13:13:57;;;;;;;17.67;11.60;;;9.80;85.30;;;;;;4925919;29;20071;-80
2021/12/14 13:16:38;;;;;;;16.75;12.38;;;9.80;85.20;;;;;;4923631;29;20094;-80
2021/12/14 13:19:15;;;;;;;16.90;11.00;;;9.70;85.20;;;;;;4919623;29;20068;-80
2021/12/14 13:21:53;;;;;;;16.45;11.73;;;9.80;85.20;;;;;;4917403;29;20074;-80
2021/12/14 13:24:45;;;;;;;15.77;10.98;;;9.80;85.20;;;;;;4929501;29;20047;-81
2021/12/14 13:27:24;;;;;;;19.50;11.60;;;9.80;85.20;;;;;;4920077;29;20103;-80
2021/12/14 13:29:59;;;;;;;15.02;11.57;;;9.80;85.10;;;;;;4918912;29;20063;-80
2021/12/14 13:32:40;;;;;;;18.88;11.63;;;9.80;85.10;;;;;;4922476;29;20558;-79
2021/12/14 13:35:16;;;;;;;17.92;12.45;;;9.80;85.10;;;;;;4932454;29;20471;-80
2021/12/14 13:37:48;;;;;;;18.20;12.05;;;9.80;85.10;;;;;;4923923;29;20048;-79
2021/12/14 13:40:44;;;;;;;21.13;11.98;;;9.90;85.10;;;;;;4922363;29;20048;-79
2021/12/14 13:43:11;;;;;;;15.57;10.70;;;9.80;85.00;;;;;;4922015;29;20054;-80
2021/12/14 13:45:44;;;;;;;15.93;11.55;;;9.90;85.00;;;;;;4921841;29;20078;-80
2021/12/14 13:48:14;;;;;;;15.60;11.57;;;9.80;85.00;;;;;;4933512;29;20047;-80
2021/12/14 13:50:46;;;;;;;15.10;11.30;;;9.90;85.00;;;;;;4932668;29;20058;-81
2021/12/14 13:53:14;;;;;;;15.52;11.52;;;9.90;85.00;;;;;;4922020;29;20056;-80
2021/12/14 13:56:05;;;;;;;15.30;10.35;;;9.90;85.00;;;;;;4917486;29;20048;-79